Saint-Marc, Haiti
Current Conditions -  °F | °C
As of 6:00 PM on Wednesday 22 Oct 2014 (Local Time) from MDST Reporting Station
Scattered Clouds Scattered Clouds  
Wind Chill: 84°   Ceiling: Unl
Heat Index: 88°   Visibility: 6mi
Dew Point: 70°   Wind: 7mph
Humidity: 62%   Direction: 120°ESE
Pressure: 29.85"   Gusts: NA
Location:  19.11°N, 72.7°W
Report Text: MDST 222300Z 12006KT 9999 FEW020 SCT300 29/21 Q1011
Loading
Personal Weather Stations






























Interactive Weather Map
Tropical Storm Tracking
New forecast layout! Learn more

10-Day Weather Forecast

Advertisements
Track Severe Weather on mobile